createdAt,value
2018-03-27T00:01:20.023Z,69.28
2018-03-27T00:03:48.033Z,71.64
2018-03-27T00:06:16.074Z,71.44
2018-03-27T00:08:44.190Z,72.42
2018-03-27T00:11:12.224Z,73.16
2018-03-27T00:13:40.241Z,74.21
2018-03-27T00:16:08.298Z,71.48
2018-03-27T00:18:36.364Z,70.47
2018-03-27T00:21:04.448Z,70.78
2018-03-27T00:23:32.475Z,69.74
2018-03-27T00:26:00.523Z,67.86
2018-03-27T00:28:40.494Z,69.34
2018-03-27T00:31:20.122Z,67.12
2018-03-27T00:33:59.831Z,67.33
2018-03-27T00:36:39.791Z,66.10
2018-03-27T00:39:19.601Z,66.90
2018-03-27T00:45:05.621Z,66.87
2018-03-27T00:47:33.587Z,67.01
2018-03-27T00:50:01.661Z,68.43
2018-03-27T00:52:29.744Z,67.02
2018-03-27T00:54:57.878Z,66.01
2018-03-27T00:57:26.104Z,65.44
2018-03-27T00:59:54.155Z,68.71
2018-03-27T01:02:22.257Z,68.37
2018-03-27T01:04:50.328Z,67.65
2018-03-27T01:07:18.395Z,70.29
2018-03-27T01:09:46.423Z,68.08
2018-03-27T01:12:14.536Z,66.54
2018-03-27T01:14:42.639Z,67.58
2018-03-27T01:17:10.680Z,68.29
2018-03-27T01:19:38.890Z,67.62
2018-03-27T01:22:07.023Z,68.38
2018-03-27T01:24:35.175Z,66.18
2018-03-27T01:27:03.248Z,66.33
2018-03-27T01:29:31.292Z,66.56
2018-03-27T01:31:59.319Z,67.23
2018-03-27T01:34:27.376Z,67.92
2018-03-27T01:36:55.415Z,65.67
2018-03-27T01:39:23.412Z,66.52
2018-03-27T01:41:51.427Z,65.38
2018-03-27T01:44:19.468Z,64.96
2018-03-27T01:46:47.565Z,64.79
2018-03-27T01:49:15.660Z,65.00
2018-03-27T01:51:43.701Z,64.94
2018-03-27T01:54:11.772Z,64.79
2018-03-27T01:56:39.790Z,64.94
2018-03-27T01:59:08.268Z,64.75
2018-03-27T02:01:36.269Z,65.15
2018-03-27T02:04:04.274Z,65.49
2018-03-27T02:06:32.303Z,66.46
2018-03-27T02:09:00.324Z,65.99
2018-03-27T02:11:34.070Z,67.62
2018-03-27T02:14:07.544Z,66.14
2018-03-27T02:16:41.253Z,66.58
2018-03-27T02:19:14.851Z,65.82
2018-03-27T02:21:42.730Z,65.91
2018-03-27T02:24:11.374Z,65.55
2018-03-27T02:26:39.423Z,65.76
2018-03-27T02:29:07.486Z,65.68
2018-03-27T02:31:35.552Z,65.33
2018-03-27T02:34:03.572Z,64.76
2018-03-27T02:36:31.622Z,64.52
2018-03-27T02:38:59.691Z,64.64
2018-03-27T02:41:27.793Z,65.06
2018-03-27T02:43:55.846Z,64.43
2018-03-27T02:46:24.000Z,64.84
2018-03-27T02:48:52.142Z,64.86
2018-03-27T02:51:20.279Z,65.52
2018-03-27T02:53:48.375Z,64.90
2018-03-27T02:56:16.421Z,65.48
2018-03-27T02:58:44.605Z,65.72
2018-03-27T03:01:12.930Z,65.02
2018-03-27T03:03:41.033Z,65.60
2018-03-27T03:06:09.072Z,65.73
2018-03-27T03:08:37.047Z,64.95
2018-03-27T03:11:05.157Z,65.79
2018-03-27T03:13:33.290Z,66.13
2018-03-27T03:16:01.391Z,65.27
2018-03-27T03:18:29.458Z,67.03
2018-03-27T03:20:57.438Z,69.04
2018-03-27T03:23:25.459Z,68.20
2018-03-27T03:25:53.522Z,68.67
2018-03-27T03:28:21.611Z,67.76
2018-03-27T03:30:49.657Z,67.89
2018-03-27T03:33:17.714Z,67.26
2018-03-27T03:35:45.784Z,67.25
2018-03-27T03:38:13.831Z,67.48
2018-03-27T03:40:41.901Z,67.09
2018-03-27T03:43:09.922Z,67.23
2018-03-27T03:45:38.003Z,67.61
2018-03-27T03:48:06.022Z,66.51
2018-03-27T03:50:34.112Z,66.09
2018-03-27T03:53:02.109Z,67.53
2018-03-27T03:55:30.147Z,67.14
2018-03-27T03:57:58.289Z,68.07
2018-03-27T04:00:26.448Z,68.63
2018-03-27T04:02:54.886Z,69.14
2018-03-27T04:05:22.942Z,69.16
2018-03-27T04:07:50.955Z,68.35
2018-03-27T04:10:19.013Z,68.80
2018-03-27T04:12:47.071Z,68.47
2018-03-27T04:15:15.095Z,69.06
2018-03-27T04:17:43.146Z,68.51
2018-03-27T04:20:11.214Z,68.65
2018-03-27T04:22:39.290Z,69.70
2018-03-27T04:25:07.312Z,68.69
2018-03-27T04:27:35.326Z,68.35
2018-03-27T04:30:03.366Z,68.38
2018-03-27T04:32:31.436Z,68.55
2018-03-27T04:34:59.612Z,68.69
2018-03-27T04:37:27.696Z,68.99
2018-03-27T04:39:55.719Z,68.72
2018-03-27T04:42:23.767Z,68.51
2018-03-27T04:44:51.751Z,68.88
2018-03-27T04:47:19.823Z,68.28
2018-03-27T04:49:47.839Z,68.56
2018-03-27T04:52:15.934Z,68.00
2018-03-27T04:54:43.991Z,68.14
2018-03-27T04:57:12.051Z,67.78
2018-03-27T04:59:40.112Z,70.78
2018-03-27T05:02:08.195Z,71.80
2018-03-27T05:04:36.343Z,70.23
2018-03-27T05:07:04.370Z,70.25
2018-03-27T05:09:32.362Z,69.92
2018-03-27T05:12:00.445Z,69.00
2018-03-27T05:14:28.475Z,69.30
2018-03-27T05:16:56.497Z,69.44
2018-03-27T05:19:24.580Z,69.39
2018-03-27T05:21:52.605Z,69.51
2018-03-27T05:24:20.743Z,68.06
2018-03-27T05:26:48.755Z,67.83
2018-03-27T05:29:16.847Z,67.57
2018-03-27T05:31:45.122Z,67.06
2018-03-27T05:34:13.232Z,68.32
2018-03-27T05:36:41.367Z,67.61
2018-03-27T05:39:09.703Z,66.90
2018-03-27T05:41:37.812Z,67.43
2018-03-27T05:44:05.896Z,67.82
2018-03-27T05:46:33.967Z,67.21
2018-03-27T05:49:02.025Z,65.05
2018-03-27T05:51:30.027Z,65.40
2018-03-27T05:53:58.102Z,65.91
2018-03-27T05:56:26.250Z,67.12
2018-03-27T05:58:54.333Z,68.51
2018-03-27T06:01:22.352Z,67.72
2018-03-27T06:03:50.508Z,67.03
2018-03-27T06:06:18.939Z,67.14
2018-03-27T06:08:46.941Z,69.75
2018-03-27T06:11:15.072Z,69.95
2018-03-27T06:13:43.050Z,68.01
2018-03-27T06:16:11.212Z,67.96
2018-03-27T06:18:39.335Z,69.12
2018-03-27T06:21:07.423Z,67.62
2018-03-27T06:23:35.454Z,67.62
2018-03-27T06:26:03.563Z,67.21
2018-03-27T06:28:31.724Z,68.78
2018-03-27T06:30:59.876Z,69.61
2018-03-27T06:33:27.968Z,69.89
2018-03-27T06:35:56.058Z,70.05
2018-03-27T06:38:24.035Z,70.10
2018-03-27T06:40:52.107Z,68.38
2018-03-27T06:43:20.139Z,66.64
2018-03-27T06:45:48.168Z,66.77
2018-03-27T06:48:16.251Z,67.14
2018-03-27T06:50:44.291Z,68.16
2018-03-27T06:53:12.333Z,67.45
2018-03-27T06:55:40.450Z,67.31
2018-03-27T06:58:08.562Z,67.13
2018-03-27T07:00:36.766Z,63.66
2018-03-27T07:03:04.862Z,63.55
2018-03-27T07:05:32.969Z,61.32
2018-03-27T07:08:01.445Z,62.29
2018-03-27T07:10:29.558Z,62.40
2018-03-27T07:12:57.629Z,63.75
2018-03-27T07:15:25.679Z,64.36
2018-03-27T07:17:53.718Z,65.73
2018-03-27T07:20:21.798Z,65.15
2018-03-27T07:22:49.888Z,67.41
2018-03-27T07:25:17.867Z,64.18
2018-03-27T07:27:45.944Z,63.94
2018-03-27T07:30:13.996Z,65.24
2018-03-27T07:32:42.067Z,61.63
2018-03-27T07:35:10.129Z,58.93
2018-03-27T07:37:38.166Z,61.42
2018-03-27T07:40:06.229Z,62.72
2018-03-27T07:42:34.312Z,61.19
2018-03-27T07:45:02.402Z,61.60
2018-03-27T07:47:30.572Z,60.17
2018-03-27T07:49:58.635Z,59.95
2018-03-27T07:52:26.687Z,60.08
2018-03-27T07:54:54.855Z,59.56
2018-03-27T07:57:23.611Z,59.77
2018-03-27T07:59:52.054Z,60.12
2018-03-27T08:02:20.620Z,61.85
2018-03-27T08:04:49.189Z,65.27
2018-03-27T08:07:17.428Z,63.01
2018-03-27T08:09:46.016Z,59.78
2018-03-27T08:12:14.138Z,59.28
2018-03-27T08:14:42.295Z,57.00
2018-03-27T08:17:10.367Z,57.26
2018-03-27T08:19:38.386Z,55.23
2018-03-27T08:22:06.476Z,54.60
2018-03-27T08:24:34.617Z,57.94
2018-03-27T08:27:02.697Z,56.89
2018-03-27T08:29:30.748Z,57.34
2018-03-27T08:31:58.768Z,55.28
2018-03-27T08:34:26.925Z,55.33
2018-03-27T08:36:55.006Z,53.11
2018-03-27T08:39:23.515Z,52.62
2018-03-27T08:41:51.895Z,52.95
2018-03-27T08:44:19.960Z,52.10
2018-03-27T08:46:48.086Z,51.05
2018-03-27T08:49:16.155Z,50.32
2018-03-27T08:51:44.228Z,50.26
2018-03-27T08:54:12.267Z,48.92
2018-03-27T08:56:40.430Z,46.51
2018-03-27T08:59:08.544Z,49.98
2018-03-27T09:01:36.604Z,49.81
2018-03-27T09:04:04.750Z,50.61
2018-03-27T09:06:32.870Z,50.37
2018-03-27T09:09:01.041Z,49.88
2018-03-27T09:11:29.348Z,49.42
2018-03-27T09:13:57.452Z,49.90
2018-03-27T09:16:25.501Z,47.97
2018-03-27T09:18:53.558Z,46.80
2018-03-27T09:21:21.614Z,45.43
2018-03-27T09:23:49.688Z,46.44
2018-03-27T09:26:17.772Z,48.20
2018-03-27T09:28:45.835Z,49.41
2018-03-27T09:31:14.010Z,50.72
2018-03-27T09:33:42.116Z,48.80
2018-03-27T09:36:10.227Z,48.75
2018-03-27T09:38:38.305Z,48.34
2018-03-27T09:41:06.370Z,49.21
2018-03-27T09:43:34.418Z,50.95
2018-03-27T09:46:02.515Z,49.63
2018-03-27T09:48:30.595Z,51.52
2018-03-27T09:50:58.669Z,50.73
2018-03-27T09:53:26.846Z,49.47
2018-03-27T09:55:54.910Z,47.51
2018-03-27T09:58:23.026Z,44.38
2018-03-27T10:00:51.231Z,45.45
2018-03-27T10:03:19.250Z,46.58
2018-03-27T10:05:47.353Z,44.98
2018-03-27T10:08:15.596Z,46.43
2018-03-27T10:10:43.723Z,46.84
2018-03-27T10:13:12.065Z,45.29
2018-03-27T10:15:40.171Z,45.82
2018-03-27T10:18:08.280Z,46.27
2018-03-27T10:20:36.384Z,47.55
2018-03-27T10:23:04.460Z,50.55
2018-03-27T10:25:32.466Z,45.98
2018-03-27T10:28:00.471Z,43.71
2018-03-27T10:30:28.550Z,43.42
2018-03-27T10:32:56.576Z,41.69
2018-03-27T10:35:24.669Z,38.06
2018-03-27T10:37:52.764Z,40.83
2018-03-27T10:40:21.698Z,41.43
2018-03-27T10:42:49.924Z,38.60
2018-03-27T10:45:17.942Z,36.34
2018-03-27T10:47:45.978Z,36.83
2018-03-27T10:50:14.137Z,34.69
2018-03-27T10:52:42.213Z,29.99
2018-03-27T10:55:10.358Z,31.68
2018-03-27T10:57:38.470Z,28.87
2018-03-27T11:00:06.572Z,31.66
2018-03-27T11:02:34.679Z,26.67
2018-03-27T11:05:02.706Z,28.07
2018-03-27T11:07:30.798Z,26.66
2018-03-27T11:09:58.912Z,27.98
2018-03-27T11:12:27.036Z,31.86
2018-03-27T11:14:55.563Z,32.11
2018-03-27T11:17:23.689Z,29.75
2018-03-27T11:19:51.728Z,36.31
2018-03-27T11:22:19.794Z,38.54
2018-03-27T11:24:47.868Z,33.00
2018-03-27T11:27:15.848Z,34.22
2018-03-27T11:29:43.887Z,34.69
2018-03-27T11:32:11.969Z,36.58
2018-03-27T11:34:40.045Z,41.36
2018-03-27T11:37:08.080Z,37.90
2018-03-27T11:39:36.260Z,38.69
2018-03-27T11:42:04.344Z,37.83
2018-03-27T11:44:32.478Z,37.26
2018-03-27T11:47:00.545Z,36.68
2018-03-27T11:49:28.626Z,36.18
2018-03-27T11:51:56.690Z,38.86
2018-03-27T11:54:24.711Z,40.36
2018-03-27T11:56:52.814Z,41.37
2018-03-27T11:59:20.842Z,43.88
2018-03-27T12:01:48.991Z,46.80
2018-03-27T12:04:17.078Z,42.86
2018-03-27T12:06:45.103Z,43.33
2018-03-27T12:09:13.248Z,42.66
2018-03-27T12:11:41.298Z,45.73
2018-03-27T12:14:09.381Z,43.98
2018-03-27T12:16:37.673Z,41.51
2018-03-27T12:19:05.723Z,41.84
2018-03-27T12:21:33.763Z,40.76
2018-03-27T12:24:01.797Z,51.60
2018-03-27T12:26:29.914Z,43.85
2018-03-27T12:28:57.987Z,43.80
2018-03-27T12:31:26.067Z,43.46
2018-03-27T12:33:54.236Z,44.62
2018-03-27T12:36:23.048Z,43.54
2018-03-27T12:38:52.029Z,44.73
2018-03-27T12:41:20.254Z,44.82
2018-03-27T12:43:48.366Z,52.78
2018-03-27T12:46:17.094Z,46.66
2018-03-27T12:48:45.253Z,42.14
2018-03-27T12:51:13.288Z,42.28
2018-03-27T12:53:43.196Z,44.56
2018-03-27T12:56:11.276Z,48.77
2018-03-27T12:58:39.286Z,44.71
2018-03-27T13:01:07.360Z,44.29
2018-03-27T13:03:35.366Z,44.98
2018-03-27T13:06:03.555Z,46.88
2018-03-27T13:08:31.518Z,46.60
2018-03-27T13:10:59.543Z,45.22
2018-03-27T13:13:27.650Z,43.10
2018-03-27T13:15:55.760Z,44.41
2018-03-27T13:18:23.947Z,49.06
2018-03-27T13:20:52.054Z,46.13
2018-03-27T13:23:20.102Z,49.64
2018-03-27T13:25:48.157Z,42.49
2018-03-27T13:28:16.291Z,43.40
2018-03-27T13:30:44.381Z,49.70
2018-03-27T13:33:12.442Z,49.28
2018-03-27T13:35:40.443Z,47.63
2018-03-27T13:38:08.548Z,47.42
2018-03-27T13:40:36.614Z,46.07
2018-03-27T13:43:04.691Z,46.98
2018-03-27T13:45:32.558Z,43.14
2018-03-27T13:48:00.605Z,45.06
2018-03-27T13:50:28.738Z,44.18
2018-03-27T13:52:56.743Z,43.18
2018-03-27T13:55:24.722Z,39.19
2018-03-27T13:57:52.706Z,42.69
2018-03-27T14:00:20.721Z,41.69
2018-03-27T14:02:48.726Z,40.37
2018-03-27T14:05:16.730Z,43.95
2018-03-27T14:07:44.743Z,44.98
2018-03-27T14:10:12.743Z,51.08
2018-03-27T14:12:40.653Z,44.18
2018-03-27T14:15:08.715Z,43.84
2018-03-27T14:17:36.815Z,44.50
2018-03-27T14:20:05.041Z,48.75
2018-03-27T14:22:33.049Z,49.72
2018-03-27T14:25:01.038Z,43.87
2018-03-27T14:27:29.036Z,42.71
2018-03-27T14:29:57.085Z,43.48
2018-03-27T14:32:25.115Z,43.51
2018-03-27T14:34:53.084Z,37.79
2018-03-27T14:37:21.840Z,38.79
2018-03-27T14:39:50.862Z,36.60
2018-03-27T14:42:18.852Z,36.25
2018-03-27T14:44:46.863Z,36.59
2018-03-27T14:47:17.425Z,34.40
2018-03-27T14:49:45.440Z,37.73
2018-03-27T14:52:13.506Z,40.72
2018-03-27T14:54:41.558Z,34.06
2018-03-27T14:59:55.164Z,35.24
2018-03-27T15:02:23.251Z,38.24
2018-03-27T15:04:52.016Z,38.91
2018-03-27T15:07:20.019Z,37.19
2018-03-27T15:09:48.082Z,38.54
2018-03-27T15:12:16.095Z,39.29
2018-03-27T15:14:44.172Z,40.90
2018-03-27T15:17:12.154Z,39.46
2018-03-27T15:19:40.281Z,40.77
2018-03-27T15:22:08.649Z,40.40
2018-03-27T15:24:36.648Z,43.48
2018-03-27T15:27:04.677Z,42.62
2018-03-27T15:29:32.723Z,47.50
2018-03-27T15:32:00.757Z,43.51
2018-03-27T15:34:28.870Z,44.86
2018-03-27T15:36:56.945Z,42.56
2018-03-27T15:39:24.937Z,44.61
2018-03-27T15:41:52.947Z,45.37
2018-03-27T15:44:21.029Z,45.50
2018-03-27T15:46:49.067Z,47.35
2018-03-27T15:49:17.157Z,48.38
2018-03-27T15:51:45.171Z,48.27
2018-03-27T15:54:13.184Z,48.96
2018-03-27T15:56:41.223Z,51.29
2018-03-27T15:59:09.245Z,51.10
2018-03-27T16:01:37.344Z,51.16
2018-03-27T16:04:05.548Z,51.18
2018-03-27T16:06:33.576Z,49.98
2018-03-27T16:09:02.002Z,48.64
2018-03-27T16:11:30.073Z,48.39
2018-03-27T16:13:58.265Z,49.64
2018-03-27T16:16:26.918Z,49.99
2018-03-27T16:18:55.710Z,49.99
2018-03-27T16:21:24.195Z,48.97
2018-03-27T16:23:52.667Z,48.10
2018-03-27T16:26:21.138Z,50.72
2018-03-27T16:28:49.489Z,51.33
2018-03-27T16:31:18.106Z,54.21
2018-03-27T16:33:46.496Z,55.36
2018-03-27T16:36:15.002Z,53.80
2018-03-27T16:38:43.548Z,54.07
2018-03-27T16:41:11.508Z,53.85
2018-03-27T16:43:40.609Z,52.35
2018-03-27T16:46:08.883Z,55.26
2018-03-27T16:48:37.397Z,55.68
2018-03-27T16:51:06.149Z,54.88
2018-03-27T16:53:34.805Z,55.08
2018-03-27T16:56:03.489Z,56.68
2018-03-27T16:58:31.904Z,56.85
2018-03-27T17:01:00.438Z,58.31
2018-03-27T17:03:29.066Z,59.25
2018-03-27T17:05:57.478Z,58.84
2018-03-27T17:08:25.926Z,56.56
2018-03-27T17:10:54.230Z,55.21
2018-03-27T17:13:22.690Z,56.52
2018-03-27T17:15:51.259Z,57.75
2018-03-27T17:18:19.656Z,57.48
2018-03-27T17:20:48.540Z,57.19
2018-03-27T17:23:17.422Z,56.87
2018-03-27T17:25:45.871Z,55.98
2018-03-27T17:28:14.294Z,55.19
2018-03-27T17:30:42.765Z,57.19
2018-03-27T17:33:11.178Z,56.83
2018-03-27T17:35:39.718Z,56.41
2018-03-27T17:38:08.578Z,55.30
2018-03-27T17:40:37.195Z,55.83
2018-03-27T17:43:05.746Z,57.45
2018-03-27T17:45:34.096Z,55.74
2018-03-27T17:48:02.938Z,56.31
2018-03-27T17:50:31.428Z,55.65
2018-03-27T17:53:00.074Z,56.61
2018-03-27T17:55:28.690Z,56.66
2018-03-27T17:57:57.028Z,56.96
2018-03-27T18:00:25.541Z,56.66
2018-03-27T18:02:53.817Z,57.19
2018-03-27T18:05:22.104Z,56.72
2018-03-27T18:07:50.579Z,56.03
2018-03-27T18:10:19.108Z,56.38
2018-03-27T18:12:47.875Z,55.51
2018-03-27T18:15:16.745Z,55.83
2018-03-27T18:17:45.332Z,55.58
2018-03-27T18:20:14.132Z,56.25
2018-03-27T18:22:42.413Z,56.02
2018-03-27T18:25:10.834Z,54.70
2018-03-27T18:27:39.751Z,54.08
2018-03-27T18:30:08.038Z,52.61
2018-03-27T18:32:36.332Z,53.54
2018-03-27T18:35:05.195Z,53.31
2018-03-27T18:37:33.679Z,53.66
2018-03-27T18:40:02.162Z,54.24
2018-03-27T18:42:30.641Z,55.93
2018-03-27T18:44:59.017Z,54.13
2018-03-27T18:47:27.404Z,53.99
2018-03-27T18:49:55.910Z,54.93
2018-03-27T18:52:24.455Z,56.27
2018-03-27T18:54:53.016Z,57.76
2018-03-27T18:57:21.536Z,55.96
2018-03-27T18:59:50.203Z,55.19
2018-03-27T19:02:18.781Z,56.62
2018-03-27T19:04:47.234Z,56.96
2018-03-27T19:07:15.719Z,58.52
2018-03-27T19:09:44.336Z,58.35
2018-03-27T19:12:13.088Z,58.72
2018-03-27T19:14:41.517Z,56.35
2018-03-27T19:17:10.186Z,54.58
2018-03-27T19:19:38.602Z,54.52
2018-03-27T19:22:07.054Z,54.75
2018-03-27T19:24:35.555Z,54.62
2018-03-27T19:27:03.914Z,54.41
2018-03-27T19:29:32.703Z,54.05
2018-03-27T19:32:01.442Z,53.49
2018-03-27T19:34:29.763Z,53.68
2018-03-27T19:36:58.534Z,57.02
2018-03-27T19:39:26.735Z,56.83
2018-03-27T19:41:55.296Z,56.50
2018-03-27T19:44:23.818Z,55.32
2018-03-27T19:46:52.509Z,55.37
2018-03-27T19:49:20.967Z,56.03
2018-03-27T19:51:49.489Z,55.95
2018-03-27T19:54:18.328Z,55.60
2018-03-27T19:56:46.771Z,55.63
2018-03-27T19:59:15.270Z,56.07
2018-03-27T20:01:44.158Z,56.03
2018-03-27T20:04:12.568Z,55.55
2018-03-27T20:06:41.330Z,55.63
2018-03-27T20:09:09.718Z,56.92
2018-03-27T20:11:38.181Z,57.92
2018-03-27T20:14:06.838Z,57.70
2018-03-27T20:16:35.267Z,56.72
2018-03-27T20:19:03.837Z,56.52
2018-03-27T20:21:32.520Z,56.02
2018-03-27T20:24:00.911Z,56.25
2018-03-27T20:26:29.494Z,56.43
2018-03-27T20:28:58.010Z,56.50
2018-03-27T20:31:26.739Z,56.64
2018-03-27T20:33:55.246Z,57.11
2018-03-27T20:36:23.712Z,57.14
2018-03-27T20:38:51.999Z,57.11
2018-03-27T20:41:20.665Z,57.86
2018-03-27T20:43:49.044Z,61.13
2018-03-27T20:46:17.739Z,61.67
2018-03-27T20:48:46.410Z,59.88
2018-03-27T20:51:14.660Z,60.28
2018-03-27T20:53:43.488Z,60.33
2018-03-27T20:56:12.065Z,59.60
2018-03-27T20:58:40.538Z,59.38
2018-03-27T21:01:09.036Z,58.20
2018-03-27T21:03:37.857Z,57.55
2018-03-27T21:06:06.186Z,57.48
2018-03-27T21:08:34.671Z,57.40
2018-03-27T21:11:02.954Z,56.60
2018-03-27T21:13:31.622Z,56.45
2018-03-27T21:15:59.823Z,55.97
2018-03-27T21:18:28.381Z,56.37
2018-03-27T21:20:56.759Z,55.16
2018-03-27T21:23:25.261Z,57.04
2018-03-27T21:25:53.622Z,57.68
2018-03-27T21:28:21.897Z,56.67
2018-03-27T21:30:50.280Z,55.74
2018-03-27T21:33:18.983Z,56.55
2018-03-27T21:35:47.250Z,55.74
2018-03-27T21:38:15.733Z,56.38
2018-03-27T21:40:44.106Z,56.01
2018-03-27T21:43:12.565Z,56.45
2018-03-27T21:45:41.050Z,56.78
2018-03-27T21:48:09.345Z,57.07
2018-03-27T21:50:38.145Z,57.55
2018-03-27T21:53:06.902Z,58.96
2018-03-27T21:55:35.702Z,58.29
2018-03-27T21:58:04.105Z,58.36
2018-03-27T22:00:32.557Z,57.93
2018-03-27T22:03:01.340Z,60.62
2018-03-27T22:05:30.035Z,61.51
2018-03-27T22:07:58.636Z,62.48
2018-03-27T22:10:27.086Z,61.14
2018-03-27T22:12:55.261Z,61.47
2018-03-27T22:15:23.646Z,61.64
2018-03-27T22:17:52.223Z,61.16
2018-03-27T22:20:20.708Z,60.18
2018-03-27T22:22:49.298Z,60.27
2018-03-27T22:25:17.866Z,60.34
2018-03-27T22:27:46.296Z,59.53
2018-03-27T22:30:14.862Z,60.03
2018-03-27T22:32:43.540Z,60.29
2018-03-27T22:35:12.307Z,59.86
2018-03-27T22:37:40.601Z,60.78
2018-03-27T22:40:09.370Z,62.19
2018-03-27T22:42:37.641Z,61.21
2018-03-27T22:45:06.121Z,60.39
2018-03-27T22:47:34.719Z,60.20
2018-03-27T22:50:03.355Z,60.08
2018-03-27T22:52:31.795Z,62.14
2018-03-27T22:55:00.352Z,62.01
2018-03-27T22:57:28.935Z,61.26
2018-03-27T22:59:57.376Z,63.77
2018-03-27T23:02:25.894Z,63.98
2018-03-27T23:04:54.476Z,67.54
2018-03-27T23:07:22.823Z,62.51
2018-03-27T23:09:51.233Z,61.49
2018-03-27T23:12:20.328Z,60.49
2018-03-27T23:14:48.982Z,60.38
2018-03-27T23:17:17.407Z,60.93
2018-03-27T23:19:46.080Z,61.33
2018-03-27T23:22:26.606Z,61.65
2018-03-27T23:24:55.145Z,63.53
2018-03-27T23:27:24.005Z,62.70
2018-03-27T23:29:52.612Z,62.06
2018-03-27T23:32:22.107Z,63.49
2018-03-27T23:34:50.384Z,60.82
2018-03-27T23:37:19.319Z,60.74
2018-03-27T23:39:47.750Z,62.04
2018-03-27T23:42:16.322Z,60.61
2018-03-27T23:44:44.610Z,62.94
2018-03-27T23:47:13.110Z,59.26
2018-03-27T23:49:41.663Z,61.38
2018-03-27T23:52:09.893Z,61.85
2018-03-27T23:54:38.417Z,62.11
2018-03-27T23:57:06.744Z,61.93
2018-03-27T23:59:35.087Z,61.05
